sensor_id;sensor_type;location;lat;lon;timestamp;pressure;altitude;pressure_sealevel;temperature;humidity
23361;BME280;11852;50.082;18.554;2024-01-16T00:00:48;96935.0;;;0.26;82.69
23361;BME280;11852;50.082;18.554;2024-01-16T00:01:54;96937.0;;;0.41;83.38
23361;BME280;11852;50.082;18.554;2024-01-16T00:02:57;96938.0;;;0.54;83.0
23361;BME280;11852;50.082;18.554;2024-01-16T00:04:05;96940.0;;;0.65;82.69
23361;BME280;11852;50.082;18.554;2024-01-16T00:05:10;96940.0;;;0.7;82.29
23361;BME280;11852;50.082;18.554;2024-01-16T00:06:14;96941.0;;;0.52;82.86
23361;BME280;11852;50.082;18.554;2024-01-16T00:07:19;96945.0;;;0.66;82.53
23361;BME280;11852;50.082;18.554;2024-01-16T00:08:26;96941.0;;;0.46;82.57
23361;BME280;11852;50.082;18.554;2024-01-16T00:09:34;96946.0;;;0.52;82.37
23361;BME280;11852;50.082;18.554;2024-01-16T00:10:39;96944.0;;;0.58;82.64
23361;BME280;11852;50.082;18.554;2024-01-16T00:11:47;96945.0;;;0.45;82.86
23361;BME280;11852;50.082;18.554;2024-01-16T00:12:53;96943.0;;;0.56;83.01
23361;BME280;11852;50.082;18.554;2024-01-16T00:13:58;96945.0;;;0.44;83.11
23361;BME280;11852;50.082;18.554;2024-01-16T00:15:02;96951.0;;;0.53;83.15
23361;BME280;11852;50.082;18.554;2024-01-16T00:16:07;96953.0;;;0.44;83.46
23361;BME280;11852;50.082;18.554;2024-01-16T00:17:12;96952.0;;;0.54;83.45
23361;BME280;11852;50.082;18.554;2024-01-16T00:18:17;96954.0;;;0.47;83.49
23361;BME280;11852;50.082;18.554;2024-01-16T00:19:25;96958.0;;;0.32;83.23
23361;BME280;11852;50.082;18.554;2024-01-16T00:20:30;96959.0;;;0.47;82.78
23361;BME280;11852;50.082;18.554;2024-01-16T00:21:43;96959.0;;;0.47;82.8
23361;BME280;11852;50.082;18.554;2024-01-16T00:22:47;96956.0;;;0.33;83.56
23361;BME280;11852;50.082;18.554;2024-01-16T00:23:52;96954.0;;;0.3;83.77
23361;BME280;11852;50.082;18.554;2024-01-16T00:25:02;96956.0;;;0.5;83.18
23361;BME280;11852;50.082;18.554;2024-01-16T00:26:07;96959.0;;;0.64;82.51
23361;BME280;11852;50.082;18.554;2024-01-16T00:27:12;96964.0;;;0.59;82.66
23361;BME280;11852;50.082;18.554;2024-01-16T00:28:17;96958.0;;;0.36;83.6
23361;BME280;11852;50.082;18.554;2024-01-16T00:29:22;96964.0;;;0.52;83.4
23361;BME280;11852;50.082;18.554;2024-01-16T00:30:27;96958.0;;;0.52;82.74
23361;BME280;11852;50.082;18.554;2024-01-16T00:31:31;96963.0;;;0.31;83.75
23361;BME280;11852;50.082;18.554;2024-01-16T00:32:38;96962.0;;;0.3;84.13
23361;BME280;11852;50.082;18.554;2024-01-16T00:33:42;96967.0;;;0.39;84.01
23361;BME280;11852;50.082;18.554;2024-01-16T00:34:50;96971.0;;;0.4;83.74
23361;BME280;11852;50.082;18.554;2024-01-16T00:35:54;96973.0;;;0.16;84.08
23361;BME280;11852;50.082;18.554;2024-01-16T00:36:59;96974.0;;;0.36;84.23
23361;BME280;11852;50.082;18.554;2024-01-16T00:38:04;96976.0;;;0.47;83.62
23361;BME280;11852;50.082;18.554;2024-01-16T00:39:09;96980.0;;;0.37;83.27
23361;BME280;11852;50.082;18.554;2024-01-16T00:40:13;96985.0;;;0.42;83.18
23361;BME280;11852;50.082;18.554;2024-01-16T00:41:26;96987.0;;;0.55;83.24
23361;BME280;11852;50.082;18.554;2024-01-16T00:42:31;96986.0;;;0.69;82.82
23361;BME280;11852;50.082;18.554;2024-01-16T00:43:36;96982.0;;;0.75;82.75
23361;BME280;11852;50.082;18.554;2024-01-16T00:44:46;96984.0;;;0.55;82.94
23361;BME280;11852;50.082;18.554;2024-01-16T00:45:51;96979.0;;;0.39;83.36
23361;BME280;11852;50.082;18.554;2024-01-16T00:46:56;96991.0;;;0.4;83.14
23361;BME280;11852;50.082;18.554;2024-01-16T00:48:00;96989.0;;;0.5;83.1
23361;BME280;11852;50.082;18.554;2024-01-16T00:49:08;96991.0;;;0.58;82.63
23361;BME280;11852;50.082;18.554;2024-01-16T00:50:13;96983.0;;;0.62;82.56
23361;BME280;11852;50.082;18.554;2024-01-16T00:51:18;96985.0;;;0.54;82.52
23361;BME280;11852;50.082;18.554;2024-01-16T00:52:23;96988.0;;;0.69;82.2
23361;BME280;11852;50.082;18.554;2024-01-16T00:53:28;96985.0;;;0.76;82.19
23361;BME280;11852;50.082;18.554;2024-01-16T00:54:32;96983.0;;;0.7;82.08
23361;BME280;11852;50.082;18.554;2024-01-16T00:55:40;96983.0;;;0.48;81.92
23361;BME280;11852;50.082;18.554;2024-01-16T00:56:45;96989.0;;;0.41;82.2
23361;BME280;11852;50.082;18.554;2024-01-16T00:57:51;96988.0;;;0.65;81.83
23361;BME280;11852;50.082;18.554;2024-01-16T00:58:55;96988.0;;;0.6;81.39
23361;BME280;11852;50.082;18.554;2024-01-16T01:00:03;96995.0;;;0.61;81.56
23361;BME280;11852;50.082;18.554;2024-01-16T01:01:08;97000.0;;;0.43;81.47
23361;BME280;11852;50.082;18.554;2024-01-16T01:02:12;96998.0;;;0.28;82.64
23361;BME280;11852;50.082;18.554;2024-01-16T01:03:18;96997.0;;;0.41;82.07
23361;BME280;11852;50.082;18.554;2024-01-16T01:04:27;97001.0;;;0.57;81.84
23361;BME280;11852;50.082;18.554;2024-01-16T01:05:31;96998.0;;;0.67;81.47
23361;BME280;11852;50.082;18.554;2024-01-16T01:06:38;96999.0;;;0.67;81.31
23361;BME280;11852;50.082;18.554;2024-01-16T01:07:45;97000.0;;;0.46;81.48
23361;BME280;11852;50.082;18.554;2024-01-16T01:08:54;96993.0;;;0.55;81.59
23361;BME280;11852;50.082;18.554;2024-01-16T01:09:59;96992.0;;;0.55;81.55
23361;BME280;11852;50.082;18.554;2024-01-16T01:11:07;96993.0;;;0.61;80.97
23361;BME280;11852;50.082;18.554;2024-01-16T01:12:14;96991.0;;;0.21;82.2
23361;BME280;11852;50.082;18.554;2024-01-16T01:13:22;96991.0;;;0.45;81.87
23361;BME280;11852;50.082;18.554;2024-01-16T01:14:26;96994.0;;;0.6;81.34
23361;BME280;11852;50.082;18.554;2024-01-16T01:15:35;97002.0;;;0.58;81.03
23361;BME280;11852;50.082;18.554;2024-01-16T01:16:40;97002.0;;;0.36;81.69
23361;BME280;11852;50.082;18.554;2024-01-16T01:17:45;97000.0;;;0.23;81.97
23361;BME280;11852;50.082;18.554;2024-01-16T01:18:57;97000.0;;;0.34;82.29
23361;BME280;11852;50.082;18.554;2024-01-16T01:20:06;97004.0;;;0.42;81.83
23361;BME280;11852;50.082;18.554;2024-01-16T01:21:12;97001.0;;;0.49;81.34
23361;BME280;11852;50.082;18.554;2024-01-16T01:22:19;96999.0;;;0.26;82.28
23361;BME280;11852;50.082;18.554;2024-01-16T01:23:26;97002.0;;;0.43;81.41
23361;BME280;11852;50.082;18.554;2024-01-16T01:24:33;97004.0;;;0.43;81.46
23361;BME280;11852;50.082;18.554;2024-01-16T01:25:38;97000.0;;;0.5;81.34
23361;BME280;11852;50.082;18.554;2024-01-16T01:26:43;96996.0;;;0.46;81.61
23361;BME280;11852;50.082;18.554;2024-01-16T01:27:48;97002.0;;;0.45;81.77
23361;BME280;11852;50.082;18.554;2024-01-16T01:28:56;96999.0;;;0.45;81.35
23361;BME280;11852;50.082;18.554;2024-01-16T01:30:01;97002.0;;;0.44;81.49
23361;BME280;11852;50.082;18.554;2024-01-16T01:31:08;97008.0;;;0.39;81.71
23361;BME280;11852;50.082;18.554;2024-01-16T01:32:10;97005.0;;;0.19;82.12
23361;BME280;11852;50.082;18.554;2024-01-16T01:33:15;97005.0;;;0.28;82.42
23361;BME280;11852;50.082;18.554;2024-01-16T01:34:20;97007.0;;;-0.04;83.22
23361;BME280;11852;50.082;18.554;2024-01-16T01:35:25;97006.0;;;0.2;82.95
23361;BME280;11852;50.082;18.554;2024-01-16T01:36:32;97010.0;;;0.12;83.16
23361;BME280;11852;50.082;18.554;2024-01-16T01:37:37;97000.0;;;0.01;82.97
23361;BME280;11852;50.082;18.554;2024-01-16T01:38:42;97001.0;;;0.12;83.46
23361;BME280;11852;50.082;18.554;2024-01-16T01:39:46;97005.0;;;0.1;84.01
23361;BME280;11852;50.082;18.554;2024-01-16T01:40:54;97004.0;;;0.11;83.59
23361;BME280;11852;50.082;18.554;2024-01-16T01:41:59;97003.0;;;0.13;83.83
23361;BME280;11852;50.082;18.554;2024-01-16T01:44:21;97001.0;;;0.17;83.23
23361;BME280;11852;50.082;18.554;2024-01-16T01:45:25;97003.0;;;0.33;83.16
23361;BME280;11852;50.082;18.554;2024-01-16T01:46:31;97004.0;;;0.04;83.8
23361;BME280;11852;50.082;18.554;2024-01-16T01:47:36;97005.0;;;0.06;83.87
23361;BME280;11852;50.082;18.554;2024-01-16T01:48:41;97003.0;;;0.16;84.0
23361;BME280;11852;50.082;18.554;2024-01-16T01:49:46;97008.0;;;0.11;83.63
23361;BME280;11852;50.082;18.554;2024-01-16T01:50:50;97016.0;;;0.12;84.47
23361;BME280;11852;50.082;18.554;2024-01-16T01:51:55;97018.0;;;0.4;83.82
23361;BME280;11852;50.082;18.554;2024-01-16T01:53:03;97022.0;;;0.35;84.01
23361;BME280;11852;50.082;18.554;2024-01-16T01:54:08;97024.0;;;0.29;84.33
23361;BME280;11852;50.082;18.554;2024-01-16T01:55:13;97021.0;;;-0.03;86.35
23361;BME280;11852;50.082;18.554;2024-01-16T01:56:18;97020.0;;;-0.03;87.58
23361;BME280;11852;50.082;18.554;2024-01-16T01:57:25;97020.0;;;-0.07;88.36
23361;BME280;11852;50.082;18.554;2024-01-16T01:58:30;97026.0;;;0.02;88.21
23361;BME280;11852;50.082;18.554;2024-01-16T01:59:38;97023.0;;;0.04;88.37
23361;BME280;11852;50.082;18.554;2024-01-16T02:00:43;97024.0;;;0.05;89.11
23361;BME280;11852;50.082;18.554;2024-01-16T02:01:48;97025.0;;;0.2;88.89
23361;BME280;11852;50.082;18.554;2024-01-16T02:02:53;97023.0;;;0.35;88.14
23361;BME280;11852;50.082;18.554;2024-01-16T02:03:57;97022.0;;;0.12;89.1
23361;BME280;11852;50.082;18.554;2024-01-16T02:05:02;97024.0;;;0.04;89.68
23361;BME280;11852;50.082;18.554;2024-01-16T02:06:12;97022.0;;;0.04;90.51
23361;BME280;11852;50.082;18.554;2024-01-16T02:07:17;97025.0;;;0.08;90.76
23361;BME280;11852;50.082;18.554;2024-01-16T02:08:22;97027.0;;;0.21;90.15
23361;BME280;11852;50.082;18.554;2024-01-16T02:09:32;97029.0;;;0.32;89.73
23361;BME280;11852;50.082;18.554;2024-01-16T02:10:37;97028.0;;;0.29;89.58
23361;BME280;11852;50.082;18.554;2024-01-16T02:11:47;97028.0;;;0.08;90.4
23361;BME280;11852;50.082;18.554;2024-01-16T02:12:52;97028.0;;;0.08;90.76
23361;BME280;11852;50.082;18.554;2024-01-16T02:13:57;97029.0;;;0.12;91.01
23361;BME280;11852;50.082;18.554;2024-01-16T02:15:01;97026.0;;;0.13;90.93
23361;BME280;11852;50.082;18.554;2024-01-16T02:16:16;97023.0;;;0.22;90.25
23361;BME280;11852;50.082;18.554;2024-01-16T02:17:11;97031.0;;;0.22;89.6
23361;BME280;11852;50.082;18.554;2024-01-16T02:18:18;97029.0;;;0.34;89.17
23361;BME280;11852;50.082;18.554;2024-01-16T02:19:22;97030.0;;;0.34;88.67
23361;BME280;11852;50.082;18.554;2024-01-16T02:20:27;97030.0;;;0.32;88.75
23361;BME280;11852;50.082;18.554;2024-01-16T02:21:37;97026.0;;;0.39;88.41
23361;BME280;11852;50.082;18.554;2024-01-16T02:22:42;97027.0;;;0.29;87.85
23361;BME280;11852;50.082;18.554;2024-01-16T02:23:46;97026.0;;;0.23;87.76
23361;BME280;11852;50.082;18.554;2024-01-16T02:24:51;97027.0;;;0.26;87.34
23361;BME280;11852;50.082;18.554;2024-01-16T02:25:56;97025.0;;;0.17;86.88
23361;BME280;11852;50.082;18.554;2024-01-16T02:27:01;97032.0;;;0.04;87.48
23361;BME280;11852;50.082;18.554;2024-01-16T02:28:08;97032.0;;;0.16;87.17
23361;BME280;11852;50.082;18.554;2024-01-16T02:29:13;97033.0;;;0.27;86.72
23361;BME280;11852;50.082;18.554;2024-01-16T02:30:18;97033.0;;;0.14;86.62
23361;BME280;11852;50.082;18.554;2024-01-16T02:31:22;97027.0;;;0.12;86.56
23361;BME280;11852;50.082;18.554;2024-01-16T02:32:29;97033.0;;;0.3;86.11
23361;BME280;11852;50.082;18.554;2024-01-16T02:33:34;97037.0;;;0.23;86.41
23361;BME280;11852;50.082;18.554;2024-01-16T02:34:39;97032.0;;;0.26;86.34
23361;BME280;11852;50.082;18.554;2024-01-16T02:35:44;97038.0;;;0.28;86.19
23361;BME280;11852;50.082;18.554;2024-01-16T02:36:51;97036.0;;;0.2;86.86
23361;BME280;11852;50.082;18.554;2024-01-16T02:37:58;97048.0;;;-0.03;88.0
23361;BME280;11852;50.082;18.554;2024-01-16T02:39:02;97042.0;;;0.1;88.42
23361;BME280;11852;50.082;18.554;2024-01-16T02:40:07;97040.0;;;0.11;88.5
23361;BME280;11852;50.082;18.554;2024-01-16T02:41:15;97040.0;;;0.18;87.97
23361;BME280;11852;50.082;18.554;2024-01-16T02:42:20;97050.0;;;0.28;87.68
23361;BME280;11852;50.082;18.554;2024-01-16T02:43:24;97043.0;;;0.27;87.38
23361;BME280;11852;50.082;18.554;2024-01-16T02:44:29;97048.0;;;0.44;86.69
23361;BME280;11852;50.082;18.554;2024-01-16T02:45:34;97049.0;;;0.53;86.16
23361;BME280;11852;50.082;18.554;2024-01-16T02:46:39;97047.0;;;0.47;86.38
23361;BME280;11852;50.082;18.554;2024-01-16T02:47:44;97041.0;;;0.17;86.64
23361;BME280;11852;50.082;18.554;2024-01-16T02:48:51;97045.0;;;0.1;87.44
23361;BME280;11852;50.082;18.554;2024-01-16T02:49:56;97040.0;;;0.15;87.36
23361;BME280;11852;50.082;18.554;2024-01-16T02:51:01;97043.0;;;0.18;87.01
23361;BME280;11852;50.082;18.554;2024-01-16T02:52:05;97041.0;;;0.3;87.06
23361;BME280;11852;50.082;18.554;2024-01-16T02:53:10;97044.0;;;0.36;86.94
23361;BME280;11852;50.082;18.554;2024-01-16T02:54:15;97039.0;;;0.21;87.36
23361;BME280;11852;50.082;18.554;2024-01-16T02:55:20;97042.0;;;-0.05;87.93
23361;BME280;11852;50.082;18.554;2024-01-16T02:56:29;97044.0;;;0.3;87.85
23361;BME280;11852;50.082;18.554;2024-01-16T02:57:35;97043.0;;;0.22;87.49
23361;BME280;11852;50.082;18.554;2024-01-16T02:58:40;97045.0;;;0.0;88.38
23361;BME280;11852;50.082;18.554;2024-01-16T02:59:44;97048.0;;;0.18;88.26
23361;BME280;11852;50.082;18.554;2024-01-16T03:00:52;97044.0;;;0.18;88.21
23361;BME280;11852;50.082;18.554;2024-01-16T03:01:57;97050.0;;;0.43;87.37
23361;BME280;11852;50.082;18.554;2024-01-16T03:03:02;97044.0;;;0.49;86.91
23361;BME280;11852;50.082;18.554;2024-01-16T03:04:08;97046.0;;;0.17;87.29
23361;BME280;11852;50.082;18.554;2024-01-16T03:05:15;97047.0;;;0.14;88.02
23361;BME280;11852;50.082;18.554;2024-01-16T03:06:23;97058.0;;;0.11;87.97
23361;BME280;11852;50.082;18.554;2024-01-16T03:07:29;97055.0;;;0.06;88.44
23361;BME280;11852;50.082;18.554;2024-01-16T03:08:34;97056.0;;;0.1;88.28
23361;BME280;11852;50.082;18.554;2024-01-16T03:09:39;97054.0;;;0.21;87.77
23361;BME280;11852;50.082;18.554;2024-01-16T03:10:44;97062.0;;;0.22;87.45
23361;BME280;11852;50.082;18.554;2024-01-16T03:11:49;97057.0;;;0.09;88.17
23361;BME280;11852;50.082;18.554;2024-01-16T03:12:53;97062.0;;;0.01;87.96
23361;BME280;11852;50.082;18.554;2024-01-16T03:13:58;97067.0;;;0.04;88.19
23361;BME280;11852;50.082;18.554;2024-01-16T03:15:03;97069.0;;;0.19;87.72
23361;BME280;11852;50.082;18.554;2024-01-16T03:16:10;97071.0;;;0.0;87.88
23361;BME280;11852;50.082;18.554;2024-01-16T03:17:15;97073.0;;;0.05;88.08
23361;BME280;11852;50.082;18.554;2024-01-16T03:18:20;97075.0;;;0.16;87.66
23361;BME280;11852;50.082;18.554;2024-01-16T03:19:24;97080.0;;;0.3;87.44
23361;BME280;11852;50.082;18.554;2024-01-16T03:20:29;97083.0;;;0.45;87.04
23361;BME280;11852;50.082;18.554;2024-01-16T03:21:34;97085.0;;;0.41;86.66
23361;BME280;11852;50.082;18.554;2024-01-16T03:22:44;97089.0;;;0.49;86.41
23361;BME280;11852;50.082;18.554;2024-01-16T03:23:49;97087.0;;;0.23;87.05
23361;BME280;11852;50.082;18.554;2024-01-16T03:24:57;97093.0;;;0.16;87.58
23361;BME280;11852;50.082;18.554;2024-01-16T03:26:05;97099.0;;;0.33;86.76
23361;BME280;11852;50.082;18.554;2024-01-16T03:27:09;97103.0;;;0.54;86.18
23361;BME280;11852;50.082;18.554;2024-01-16T03:28:14;97096.0;;;0.47;86.27
23361;BME280;11852;50.082;18.554;2024-01-16T03:29:19;97100.0;;;0.46;86.39
23361;BME280;11852;50.082;18.554;2024-01-16T03:30:24;97102.0;;;0.36;86.39
23361;BME280;11852;50.082;18.554;2024-01-16T03:31:29;97104.0;;;0.33;86.33
23361;BME280;11852;50.082;18.554;2024-01-16T03:32:39;97100.0;;;0.27;86.74
23361;BME280;11852;50.082;18.554;2024-01-16T03:33:41;97101.0;;;0.14;87.41
23361;BME280;11852;50.082;18.554;2024-01-16T03:34:46;97110.0;;;0.27;86.83
23361;BME280;11852;50.082;18.554;2024-01-16T03:35:51;97110.0;;;0.21;86.66
23361;BME280;11852;50.082;18.554;2024-01-16T03:36:55;97111.0;;;0.15;87.59
23361;BME280;11852;50.082;18.554;2024-01-16T03:38:00;97113.0;;;0.19;87.67
23361;BME280;11852;50.082;18.554;2024-01-16T03:39:05;97114.0;;;0.2;87.42
23361;BME280;11852;50.082;18.554;2024-01-16T03:40:10;97112.0;;;0.28;87.89
23361;BME280;11852;50.082;18.554;2024-01-16T03:41:15;97116.0;;;0.24;88.29
23361;BME280;11852;50.082;18.554;2024-01-16T03:42:20;97120.0;;;0.27;88.32
23361;BME280;11852;50.082;18.554;2024-01-16T03:43:27;97111.0;;;0.1;88.87
23361;BME280;11852;50.082;18.554;2024-01-16T03:44:37;97117.0;;;0.24;88.73
23361;BME280;11852;50.082;18.554;2024-01-16T03:45:39;97123.0;;;0.4;87.76
23361;BME280;11852;50.082;18.554;2024-01-16T03:46:43;97140.0;;;0.44;86.18
23361;BME280;11852;50.082;18.554;2024-01-16T03:47:48;97146.0;;;0.36;86.16
23361;BME280;11852;50.082;18.554;2024-01-16T03:48:58;97148.0;;;0.54;85.84
23361;BME280;11852;50.082;18.554;2024-01-16T03:50:04;97148.0;;;0.64;85.65
23361;BME280;11852;50.082;18.554;2024-01-16T03:51:09;97148.0;;;0.64;85.57
23361;BME280;11852;50.082;18.554;2024-01-16T03:52:14;97145.0;;;0.62;85.69
23361;BME280;11852;50.082;18.554;2024-01-16T03:53:18;97155.0;;;0.5;85.91
23361;BME280;11852;50.082;18.554;2024-01-16T03:54:23;97159.0;;;0.56;85.68
23361;BME280;11852;50.082;18.554;2024-01-16T03:55:28;97158.0;;;0.48;85.49
23361;BME280;11852;50.082;18.554;2024-01-16T03:56:33;97159.0;;;0.5;84.7
23361;BME280;11852;50.082;18.554;2024-01-16T03:57:38;97157.0;;;0.41;84.51
23361;BME280;11852;50.082;18.554;2024-01-16T03:58:42;97172.0;;;0.49;84.1
23361;BME280;11852;50.082;18.554;2024-01-16T03:59:47;97166.0;;;0.67;83.46
23361;BME280;11852;50.082;18.554;2024-01-16T04:00:52;97168.0;;;0.76;82.98
23361;BME280;11852;50.082;18.554;2024-01-16T04:01:57;97175.0;;;0.52;83.7
23361;BME280;11852;50.082;18.554;2024-01-16T04:03:02;97175.0;;;0.56;83.93
23361;BME280;11852;50.082;18.554;2024-01-16T04:04:06;97176.0;;;0.68;83.69
23361;BME280;11852;50.082;18.554;2024-01-16T04:05:11;97178.0;;;0.57;83.79
23361;BME280;11852;50.082;18.554;2024-01-16T04:06:17;97184.0;;;0.78;83.64
23361;BME280;11852;50.082;18.554;2024-01-16T04:07:22;97186.0;;;0.69;83.97
23361;BME280;11852;50.082;18.554;2024-01-16T04:08:25;97184.0;;;0.35;85.35
23361;BME280;11852;50.082;18.554;2024-01-16T04:09:30;97184.0;;;0.55;85.38
23361;BME280;11852;50.082;18.554;2024-01-16T04:11:36;97184.0;;;0.55;85.38
23361;BME280;11852;50.082;18.554;2024-01-16T04:13:39;97184.0;;;0.55;85.46
23361;BME280;11852;50.082;18.554;2024-01-16T04:14:43;97181.0;;;0.45;87.59
23361;BME280;11852;50.082;18.554;2024-01-16T04:15:48;97183.0;;;0.62;87.18
23361;BME280;11852;50.082;18.554;2024-01-16T04:16:53;97184.0;;;0.5;86.89
23361;BME280;11852;50.082;18.554;2024-01-16T04:17:57;97183.0;;;0.34;87.5
23361;BME280;11852;50.082;18.554;2024-01-16T04:19:02;97180.0;;;0.51;87.17
23361;BME280;11852;50.082;18.554;2024-01-16T04:20:11;97183.0;;;0.6;86.81
23361;BME280;11852;50.082;18.554;2024-01-16T04:21:15;97187.0;;;0.67;86.57
23361;BME280;11852;50.082;18.554;2024-01-16T04:22:20;97186.0;;;0.63;86.51
23361;BME280;11852;50.082;18.554;2024-01-16T04:23:25;97185.0;;;0.72;86.18
23361;BME280;11852;50.082;18.554;2024-01-16T04:24:29;97189.0;;;0.61;86.19
23361;BME280;11852;50.082;18.554;2024-01-16T04:25:34;97188.0;;;0.73;85.62
23361;BME280;11852;50.082;18.554;2024-01-16T04:26:39;97195.0;;;0.77;85.7
23361;BME280;11852;50.082;18.554;2024-01-16T04:27:44;97196.0;;;0.78;85.69
23361;BME280;11852;50.082;18.554;2024-01-16T04:28:49;97193.0;;;0.59;85.95
23361;BME280;11852;50.082;18.554;2024-01-16T04:29:53;97196.0;;;0.62;86.19
23361;BME280;11852;50.082;18.554;2024-01-16T04:30:59;97200.0;;;0.39;86.92
23361;BME280;11852;50.082;18.554;2024-01-16T04:32:03;97203.0;;;0.52;86.66
23361;BME280;11852;50.082;18.554;2024-01-16T04:33:08;97201.0;;;0.58;86.59
23361;BME280;11852;50.082;18.554;2024-01-16T04:34:13;97202.0;;;0.62;86.63
23361;BME280;11852;50.082;18.554;2024-01-16T04:35:18;97201.0;;;0.67;86.46
23361;BME280;11852;50.082;18.554;2024-01-16T04:36:22;97204.0;;;0.6;86.82
23361;BME280;11852;50.082;18.554;2024-01-16T04:37:30;97207.0;;;0.47;87.25
23361;BME280;11852;50.082;18.554;2024-01-16T04:38:35;97198.0;;;0.53;87.33
23361;BME280;11852;50.082;18.554;2024-01-16T04:39:40;97203.0;;;0.46;87.55
23361;BME280;11852;50.082;18.554;2024-01-16T04:40:44;97197.0;;;0.5;87.4
23361;BME280;11852;50.082;18.554;2024-01-16T04:41:49;97200.0;;;0.52;87.56
23361;BME280;11852;50.082;18.554;2024-01-16T04:42:54;97192.0;;;0.53;87.6
23361;BME280;11852;50.082;18.554;2024-01-16T04:43:59;97191.0;;;0.64;87.45
23361;BME280;11852;50.082;18.554;2024-01-16T04:45:04;97194.0;;;0.43;87.96
23361;BME280;11852;50.082;18.554;2024-01-16T04:46:09;97193.0;;;0.55;87.76
23361;BME280;11852;50.082;18.554;2024-01-16T04:47:13;97196.0;;;0.45;88.25
23361;BME280;11852;50.082;18.554;2024-01-16T04:48:18;97201.0;;;0.57;88.01
23361;BME280;11852;50.082;18.554;2024-01-16T04:49:23;97207.0;;;0.55;87.88
23361;BME280;11852;50.082;18.554;2024-01-16T04:50:28;97209.0;;;0.49;88.03
23361;BME280;11852;50.082;18.554;2024-01-16T04:51:33;97216.0;;;0.28;89.42
23361;BME280;11852;50.082;18.554;2024-01-16T04:52:40;97219.0;;;0.41;89.08
23361;BME280;11852;50.082;18.554;2024-01-16T04:53:45;97222.0;;;0.35;89.37
23361;BME280;11852;50.082;18.554;2024-01-16T04:54:50;97223.0;;;0.43;89.02
23361;BME280;11852;50.082;18.554;2024-01-16T04:55:57;97224.0;;;0.47;88.86
23361;BME280;11852;50.082;18.554;2024-01-16T04:57:02;97224.0;;;0.29;89.49
23361;BME280;11852;50.082;18.554;2024-01-16T04:58:07;97229.0;;;0.38;89.75
23361;BME280;11852;50.082;18.554;2024-01-16T04:59:12;97243.0;;;0.46;89.59
23361;BME280;11852;50.082;18.554;2024-01-16T05:00:17;97237.0;;;0.37;90.12
23361;BME280;11852;50.082;18.554;2024-01-16T05:01:21;97232.0;;;0.43;90.14
23361;BME280;11852;50.082;18.554;2024-01-16T05:02:26;97239.0;;;0.43;90.06
23361;BME280;11852;50.082;18.554;2024-01-16T05:03:31;97235.0;;;0.49;89.99
23361;BME280;11852;50.082;18.554;2024-01-16T05:04:36;97238.0;;;0.53;90.01
23361;BME280;11852;50.082;18.554;2024-01-16T05:05:41;97237.0;;;0.59;89.79
23361;BME280;11852;50.082;18.554;2024-01-16T05:06:49;97242.0;;;0.64;89.73
23361;BME280;11852;50.082;18.554;2024-01-16T05:07:50;97238.0;;;0.69;89.69
23361;BME280;11852;50.082;18.554;2024-01-16T05:08:55;97242.0;;;0.68;90.07
23361;BME280;11852;50.082;18.554;2024-01-16T05:10:00;97242.0;;;0.52;91.48
23361;BME280;11852;50.082;18.554;2024-01-16T05:11:05;97244.0;;;0.6;91.22
23361;BME280;11852;50.082;18.554;2024-01-16T05:12:10;97245.0;;;0.58;91.59
23361;BME280;11852;50.082;18.554;2024-01-16T05:13:14;97250.0;;;0.6;91.62
23361;BME280;11852;50.082;18.554;2024-01-16T05:14:19;97245.0;;;0.52;92.17
23361;BME280;11852;50.082;18.554;2024-01-16T05:15:24;97249.0;;;0.6;92.33
23361;BME280;11852;50.082;18.554;2024-01-16T05:16:29;97253.0;;;0.55;92.83
23361;BME280;11852;50.082;18.554;2024-01-16T05:17:34;97257.0;;;0.37;94.12
23361;BME280;11852;50.082;18.554;2024-01-16T05:18:42;97263.0;;;0.47;93.85
23361;BME280;11852;50.082;18.554;2024-01-16T05:19:43;97262.0;;;0.55;93.39
23361;BME280;11852;50.082;18.554;2024-01-16T05:20:48;97263.0;;;0.48;93.97
23361;BME280;11852;50.082;18.554;2024-01-16T05:21:53;97265.0;;;0.39;94.54
23361;BME280;11852;50.082;18.554;2024-01-16T05:22:58;97269.0;;;0.47;94.5
23361;BME280;11852;50.082;18.554;2024-01-16T05:24:03;97273.0;;;0.45;94.66
23361;BME280;11852;50.082;18.554;2024-01-16T05:25:08;97276.0;;;0.5;94.35
23361;BME280;11852;50.082;18.554;2024-01-16T05:26:13;97276.0;;;0.41;95.12
23361;BME280;11852;50.082;18.554;2024-01-16T05:27:18;97281.0;;;0.46;94.97
23361;BME280;11852;50.082;18.554;2024-01-16T05:28:23;97282.0;;;0.47;95.14
23361;BME280;11852;50.082;18.554;2024-01-16T05:29:27;97283.0;;;0.43;95.4
23361;BME280;11852;50.082;18.554;2024-01-16T05:30:32;97279.0;;;0.48;95.09
23361;BME280;11852;50.082;18.554;2024-01-16T05:31:40;97282.0;;;0.34;96.26
23361;BME280;11852;50.082;18.554;2024-01-16T05:32:45;97278.0;;;0.42;95.98
23361;BME280;11852;50.082;18.554;2024-01-16T05:33:50;97281.0;;;0.3;96.41
23361;BME280;11852;50.082;18.554;2024-01-16T05:34:55;97282.0;;;0.27;96.59
23361;BME280;11852;50.082;18.554;2024-01-16T05:36:00;97279.0;;;0.26;96.86
23361;BME280;11852;50.082;18.554;2024-01-16T05:37:04;97277.0;;;0.27;96.75
23361;BME280;11852;50.082;18.554;2024-01-16T05:38:09;97272.0;;;0.06;97.3
23361;BME280;11852;50.082;18.554;2024-01-16T05:39:14;97277.0;;;0.08;97.75
23361;BME280;11852;50.082;18.554;2024-01-16T05:40:19;97277.0;;;-0.05;97.73
23361;BME280;11852;50.082;18.554;2024-01-16T05:41:24;97271.0;;;0.04;97.66
23361;BME280;11852;50.082;18.554;2024-01-16T05:42:29;97270.0;;;0.07;97.4
23361;BME280;11852;50.082;18.554;2024-01-16T05:43:33;97271.0;;;0.12;97.1
23361;BME280;11852;50.082;18.554;2024-01-16T05:44:38;97268.0;;;0.16;96.79
23361;BME280;11852;50.082;18.554;2024-01-16T05:45:43;97271.0;;;0.11;96.76
23361;BME280;11852;50.082;18.554;2024-01-16T05:46:48;97277.0;;;0.18;96.57
23361;BME280;11852;50.082;18.554;2024-01-16T05:47:53;97274.0;;;0.22;96.46
23361;BME280;11852;50.082;18.554;2024-01-16T05:48:57;97288.0;;;0.25;96.41
23361;BME280;11852;50.082;18.554;2024-01-16T05:50:04;97291.0;;;0.28;96.31
23361;BME280;11852;50.082;18.554;2024-01-16T05:51:08;97291.0;;;0.31;96.32
23361;BME280;11852;50.082;18.554;2024-01-16T05:52:13;97291.0;;;0.24;96.55
23361;BME280;11852;50.082;18.554;2024-01-16T05:53:18;97291.0;;;0.09;97.0
23361;BME280;11852;50.082;18.554;2024-01-16T05:54:23;97296.0;;;0.13;97.19
23361;BME280;11852;50.082;18.554;2024-01-16T05:55:28;97299.0;;;0.08;97.42